Time;durP1;ratioP1;P1;durP2;ratioP2;P2;SDS_P1;SDS_P2;PMS_P1;PMS_P2;Temp;Humidity;BMP_temperature;BMP_pressure;BME280_temperature;BME280_humidity;BME280_pressure;Samples;Min_cycle;Max_cycle;Signal;HPM_P1;HPM_P2
2022/06/28 00:00:20;;;;;;;25.02;12.88;;;;;;;13.60;100.00;97100.13;5034694;28;20112;-73
2022/06/28 00:02:46;;;;;;;23.23;12.13;;;;;;;13.44;100.00;97098.31;5036068;28;20055;-73
2022/06/28 00:05:12;;;;;;;23.75;12.75;;;;;;;13.28;100.00;97101.88;5033812;28;20041;-73
2022/06/28 00:07:38;;;;;;;24.00;13.23;;;;;;;13.17;100.00;97109.00;5033582;28;20025;-73
2022/06/28 00:10:05;;;;;;;22.20;12.63;;;;;;;13.07;100.00;97109.66;5032457;28;20044;-73
2022/06/28 00:12:31;;;;;;;23.70;12.77;;;;;;;12.97;100.00;97100.66;5036734;28;20124;-73
2022/06/28 00:17:40;;;;;;;21.55;12.55;;;;;;;12.79;100.00;97105.25;5033940;28;20049;-74
2022/06/28 00:20:06;;;;;;;21.13;13.30;;;;;;;12.75;100.00;97103.28;5030660;28;20048;-72
2022/06/28 00:22:32;;;;;;;22.42;13.23;;;;;;;12.69;100.00;97102.41;5033928;28;20119;-73
2022/06/28 00:24:57;;;;;;;23.10;13.02;;;;;;;12.56;100.00;97105.44;5034219;28;20040;-73
2022/06/28 00:27:23;;;;;;;23.85;13.45;;;;;;;12.39;100.00;97108.13;5035170;28;20062;-73
2022/06/28 00:29:48;;;;;;;33.15;14.15;;;;;;;12.35;100.00;97103.47;5033980;28;20368;-72
2022/06/28 00:32:14;;;;;;;29.27;14.70;;;;;;;12.37;100.00;97106.72;5031090;28;20037;-73
2022/06/28 00:34:39;;;;;;;24.70;14.07;;;;;;;12.39;100.00;97107.31;5031195;28;20075;-72
2022/06/28 00:37:05;;;;;;;28.63;14.52;;;;;;;12.37;100.00;97112.91;5037619;28;20384;-74
2022/06/28 00:39:30;;;;;;;27.20;14.98;;;;;;;12.33;100.00;97114.47;5035836;28;20032;-73
2022/06/28 00:41:56;;;;;;;25.00;14.13;;;;;;;12.21;100.00;97122.56;5054313;28;20040;-73
2022/06/28 00:44:22;;;;;;;25.27;15.13;;;;;;;12.13;100.00;97117.59;5032307;28;20068;-72
2022/06/28 00:46:48;;;;;;;28.08;14.88;;;;;;;12.07;100.00;97115.09;5035930;28;20575;-73
2022/06/28 00:49:14;;;;;;;27.73;14.48;;;;;;;11.98;100.00;97118.16;5031536;28;20021;-73
2022/06/28 00:51:40;;;;;;;28.42;15.02;;;;;;;11.99;100.00;97122.47;5037447;28;20108;-72
2022/06/28 00:54:06;;;;;;;28.27;14.23;;;;;;;11.99;100.00;97132.41;5034903;28;20045;-72
2022/06/28 00:56:32;;;;;;;27.58;14.48;;;;;;;11.89;100.00;97138.38;5034054;28;20043;-72
2022/06/28 00:58:57;;;;;;;26.67;14.60;;;;;;;11.86;100.00;97141.53;5032240;28;20032;-73
2022/06/28 01:01:25;;;;;;;28.13;15.50;;;;;;;11.88;100.00;97142.09;5035070;28;20045;-73
2022/06/28 01:03:52;;;;;;;25.45;15.25;;;;;;;11.95;100.00;97141.97;5030157;28;20041;-72
2022/06/28 01:06:17;;;;;;;23.73;15.10;;;;;;;11.90;100.00;97145.34;5034746;28;20494;-72
2022/06/28 01:08:46;;;;;;;28.33;13.57;;;;;;;11.95;100.00;97142.78;5047814;28;20037;-72
2022/06/28 01:11:20;;;;;;;27.70;14.15;;;;;;;11.99;100.00;97148.47;5033370;28;20046;-72
2022/06/28 01:13:55;;;;;;;23.40;13.02;;;;;;;11.99;100.00;97154.66;5049963;28;20502;-72
2022/06/28 01:16:22;;;;;;;32.90;14.23;;;;;;;11.92;100.00;97158.53;5036112;28;20753;-72
2022/06/28 01:18:51;;;;;;;23.15;14.52;;;;;;;11.90;100.00;97153.41;5051807;28;20036;-73
2022/06/28 01:21:30;;;;;;;29.70;15.38;;;;;;;11.91;100.00;97165.78;5038497;28;20385;-72
2022/06/28 01:23:57;;;;;;;59.42;17.80;;;;;;;11.92;100.00;97164.72;5049580;28;20476;-73
2022/06/28 01:26:49;;;;;;;286.50;22.58;;;;;;;11.96;100.00;97162.34;5020173;28;20951;-72
2022/06/28 01:29:16;;;;;;;378.40;22.58;;;;;;;11.94;100.00;97178.69;5030823;28;20457;-73
2022/06/28 01:31:54;;;;;;;594.50;21.23;;;;;;;12.02;100.00;97174.81;5029307;28;20759;-72
2022/06/28 01:34:20;;;;;;;576.38;21.23;;;;;;;11.97;100.00;97178.19;5036386;28;20029;-72
2022/06/28 01:36:46;;;;;;;281.05;15.32;;;;;;;11.94;100.00;97176.00;5032351;28;20029;-72
2022/06/28 01:39:14;;;;;;;461.85;19.17;;;;;;;11.93;100.00;97174.38;5013203;28;20033;-72
2022/06/28 01:41:40;;;;;;;238.82;14.77;;;;;;;11.79;100.00;97169.50;5036592;28;20052;-72
2022/06/28 01:44:13;;;;;;;149.43;15.10;;;;;;;11.58;100.00;97179.00;5037699;28;20044;-72
2022/06/28 01:46:51;;;;;;;93.45;13.63;;;;;;;11.55;100.00;97166.09;5033163;28;20087;-72
2022/06/28 01:49:20;;;;;;;41.63;12.82;;;;;;;11.57;100.00;97159.44;5030673;28;20127;-72
2022/06/28 01:51:45;;;;;;;23.38;11.50;;;;;;;11.51;100.00;97159.56;5020833;28;20115;-72
2022/06/28 01:54:12;;;;;;;27.58;11.65;;;;;;;11.49;100.00;97164.34;5034716;28;20051;-72
2022/06/28 01:56:38;;;;;;;27.45;12.65;;;;;;;11.33;100.00;97166.72;5037621;28;20048;-72
2022/06/28 01:59:09;;;;;;;27.10;13.02;;;;;;;11.30;100.00;97161.03;5015399;28;20079;-72
2022/06/28 02:01:49;;;;;;;25.33;11.52;;;;;;;11.26;100.00;97165.22;5049835;28;20037;-73
2022/06/28 02:04:20;;;;;;;21.42;11.25;;;;;;;11.24;100.00;97170.81;5031814;28;20051;-73
2022/06/28 02:06:48;;;;;;;19.40;11.38;;;;;;;11.21;100.00;97173.97;5036998;28;20075;-72
2022/06/28 02:09:14;;;;;;;28.25;12.60;;;;;;;11.21;100.00;97171.28;5052867;28;20053;-73
2022/06/28 02:11:43;;;;;;;130.38;10.63;;;;;;;11.10;100.00;97180.13;5043920;28;20029;-73
2022/06/28 02:14:10;;;;;;;35.22;10.45;;;;;;;10.94;100.00;97178.16;5037572;28;20045;-72
2022/06/28 02:16:36;;;;;;;17.08;9.65;;;;;;;10.76;100.00;97177.22;5033872;28;20048;-72
2022/06/28 02:19:02;;;;;;;21.73;10.23;;;;;;;10.84;100.00;97178.75;5032599;28;20877;-72
2022/06/28 02:21:28;;;;;;;21.15;8.50;;;;;;;10.87;100.00;97163.03;5048073;28;20056;-73
2022/06/28 02:23:54;;;;;;;18.13;10.63;;;;;;;10.90;100.00;97155.59;5036147;28;20112;-72
2022/06/28 02:26:20;;;;;;;16.08;8.98;;;;;;;10.93;100.00;97163.16;5034984;28;20434;-72
2022/06/28 02:28:45;;;;;;;18.35;9.73;;;;;;;10.88;100.00;97163.84;5033234;28;20033;-72
2022/06/28 02:31:13;;;;;;;20.67;8.95;;;;;;;10.85;100.00;97164.31;5029893;28;20041;-72
2022/06/28 02:33:40;;;;;;;22.60;9.80;;;;;;;10.86;100.00;97163.25;5036984;28;20035;-72
2022/06/28 02:41:36;;;;;;;22.25;10.35;;;;;;;10.72;100.00;97170.69;5037498;28;20510;-72
2022/06/28 02:44:03;;;;;;;17.73;9.65;;;;;;;10.74;100.00;97173.97;5045643;28;20114;-72
2022/06/28 02:46:28;;;;;;;19.40;10.15;;;;;;;10.74;100.00;97173.13;5041125;28;20037;-72
2022/06/28 02:48:54;;;;;;;18.77;9.13;;;;;;;10.72;100.00;97175.25;5036507;28;20036;-72
2022/06/28 02:51:20;;;;;;;13.63;8.05;;;;;;;10.71;100.00;97173.63;5021065;28;20037;-73
2022/06/28 02:53:46;;;;;;;17.02;8.00;;;;;;;10.69;100.00;97176.53;5056512;28;20037;-72
2022/06/28 02:56:12;;;;;;;17.98;6.05;;;;;;;10.50;100.00;97169.63;5038562;28;20052;-73
2022/06/28 02:58:38;;;;;;;12.45;5.32;;;;;;;10.41;100.00;97179.03;5041468;28;20033;-72
2022/06/28 03:01:03;;;;;;;11.82;5.72;;;;;;;10.37;100.00;97178.69;5035968;28;20042;-72
2022/06/28 03:03:30;;;;;;;8.82;4.78;;;;;;;10.34;100.00;97184.47;5032385;28;20313;-72
2022/06/28 03:05:56;;;;;;;11.00;5.32;;;;;;;10.36;100.00;97177.06;5036028;28;20076;-72
2022/06/28 03:08:24;;;;;;;12.77;6.40;;;;;;;10.38;100.00;97191.03;5033025;28;20033;-72
2022/06/28 03:10:50;;;;;;;15.07;6.25;;;;;;;10.40;100.00;97188.13;5038324;28;20064;-72
2022/06/28 03:13:16;;;;;;;13.90;6.53;;;;;;;10.41;100.00;97192.41;5049091;28;20104;-73
2022/06/28 03:15:41;;;;;;;10.10;6.10;;;;;;;10.21;100.00;97185.50;5035273;28;20057;-71
2022/06/28 03:18:07;;;;;;;14.27;7.15;;;;;;;10.16;100.00;97187.22;5036468;28;20071;-73
2022/06/28 03:20:33;;;;;;;14.40;8.10;;;;;;;10.04;100.00;97196.00;5036530;28;20412;-72
2022/06/28 03:22:59;;;;;;;18.30;8.10;;;;;;;9.98;100.00;97196.91;5013117;28;20476;-71
2022/06/28 03:25:26;;;;;;;13.10;7.23;;;;;;;9.86;100.00;97198.72;5036809;28;20408;-73
2022/06/28 03:27:51;;;;;;;14.93;8.23;;;;;;;9.83;100.00;97206.38;5031514;28;20044;-73
2022/06/28 03:30:17;;;;;;;19.95;9.15;;;;;;;9.87;100.00;97212.88;5038647;28;20499;-72
2022/06/28 03:32:44;;;;;;;19.55;8.90;;;;;;;9.96;100.00;97214.22;5059487;28;20071;-72
2022/06/28 03:35:13;;;;;;;13.98;9.02;;;;;;;9.92;100.00;97211.19;5038902;28;20063;-72
2022/06/28 03:37:39;;;;;;;19.65;9.20;;;;;;;9.99;100.00;97214.59;5039751;28;20444;-72
2022/06/28 03:40:07;;;;;;;12.27;7.95;;;;;;;10.02;100.00;97208.78;5039020;28;20041;-72
2022/06/28 03:42:37;;;;;;;14.95;7.47;;;;;;;9.98;100.00;97217.50;5038444;28;20040;-73
2022/06/28 03:45:04;;;;;;;13.93;7.45;;;;;;;9.92;100.00;97216.53;5021831;28;20098;-72
2022/06/28 03:47:30;;;;;;;14.68;7.38;;;;;;;9.94;100.00;97205.59;5033272;28;20422;-73
2022/06/28 03:49:58;;;;;;;14.18;8.10;;;;;;;9.95;100.00;97210.72;5034356;28;20120;-71
2022/06/28 03:52:44;;;;;;;20.17;8.75;;;;;;;9.99;100.00;97216.44;5036490;28;20127;-72
2022/06/28 03:55:12;;;;;;;17.33;8.38;;;;;;;9.98;100.00;97217.50;5033468;28;20029;-72
2022/06/28 03:57:41;;;;;;;16.75;7.35;;;;;;;9.93;100.00;97214.66;5034858;28;20509;-73
2022/06/28 04:00:09;;;;;;;15.23;7.57;;;;;;;10.02;100.00;97210.63;5036072;28;20028;-72
2022/06/28 04:02:43;;;;;;;17.40;8.63;;;;;;;10.07;100.00;97210.78;5035924;28;20128;-73
2022/06/28 04:05:16;;;;;;;21.95;9.18;;;;;;;10.21;100.00;97217.59;5036199;28;20040;-74
2022/06/28 04:07:42;;;;;;;18.75;10.10;;;;;;;10.23;100.00;97222.72;5038944;28;20044;-72
2022/06/28 04:10:08;;;;;;;18.30;9.55;;;;;;;10.10;100.00;97226.34;5032061;28;20040;-73
2022/06/28 04:12:34;;;;;;;17.92;9.95;;;;;;;10.04;100.00;97224.63;5036972;28;20059;-73
2022/06/28 04:15:13;;;;;;;18.13;9.13;;;;;;;10.03;100.00;97226.44;5049047;28;20045;-73
2022/06/28 04:17:39;;;;;;;19.23;9.13;;;;;;;10.07;100.00;97221.47;5034146;28;20047;-73
2022/06/28 04:20:23;;;;;;;16.00;8.85;;;;;;;10.11;100.00;97216.47;5033022;28;20043;-72
2022/06/28 04:22:59;;;;;;;17.88;8.38;;;;;;;10.10;100.00;97214.84;5057429;28;20044;-73
2022/06/28 04:25:25;;;;;;;13.90;9.05;;;;;;;10.21;100.00;97219.44;5051382;28;20324;-73
2022/06/28 04:27:56;;;;;;;16.00;8.85;;;;;;;10.28;100.00;97228.22;5041455;28;20059;-73
2022/06/28 04:30:25;;;;;;;14.82;7.75;;;;;;;10.38;100.00;97222.31;5053740;28;20033;-77
2022/06/28 04:32:54;;;;;;;18.45;8.32;;;;;;;10.50;100.00;97228.50;5054278;28;20728;-73
2022/06/28 04:35:22;;;;;;;14.82;7.13;;;;;;;10.57;100.00;97222.00;5038255;28;20033;-73
2022/06/28 04:37:48;;;;;;;11.68;6.60;;;;;;;10.66;100.00;97218.97;5031559;28;20033;-73
2022/06/28 04:40:28;;;;;;;15.40;7.22;;;;;;;10.65;100.00;97218.16;5034376;28;20047;-73
2022/06/28 04:43:08;;;;;;;11.40;6.60;;;;;;;10.68;100.00;97228.44;5034966;28;20514;-73
2022/06/28 04:45:34;;;;;;;12.27;6.85;;;;;;;10.75;100.00;97223.78;5037432;28;20253;-73
2022/06/28 04:48:07;;;;;;;13.27;6.93;;;;;;;10.85;100.00;97229.38;5052056;28;20511;-73
2022/06/28 04:50:33;;;;;;;13.05;7.57;;;;;;;10.94;100.00;97221.00;5050367;28;20037;-72
2022/06/28 04:52:59;;;;;;;15.77;7.35;;;;;;;11.05;100.00;97217.50;5020319;28;20041;-72
2022/06/28 04:55:25;;;;;;;14.48;6.72;;;;;;;11.11;100.00;97230.78;5034954;28;20033;-72
2022/06/28 04:58:00;;;;;;;12.45;6.32;;;;;;;11.10;100.00;97231.03;5032227;28;20146;-72
2022/06/28 05:00:27;;;;;;;12.50;6.43;;;;;;;11.18;100.00;97237.91;5036516;28;20583;-72
2022/06/28 05:03:03;;;;;;;14.20;7.97;;;;;;;11.25;100.00;97238.59;5035588;28;20033;-73
2022/06/28 05:05:47;;;;;;;16.00;7.95;;;;;;;11.39;100.00;97229.28;5049168;28;20041;-72
2022/06/28 05:08:13;;;;;;;14.70;6.95;;;;;;;11.41;100.00;97248.59;5030043;28;20095;-73
2022/06/28 05:10:52;;;;;;;22.40;10.02;;;;;;;11.37;100.00;97245.59;5048399;28;20369;-73
2022/06/28 05:13:36;;;;;;;19.88;10.48;;;;;;;11.44;100.00;97243.59;5048203;28;20043;-73
2022/06/28 05:16:05;;;;;;;25.30;13.65;;;;;;;11.40;100.00;97239.75;5018191;28;20075;-72
2022/06/28 05:18:30;;;;;;;26.88;11.95;;;;;;;11.38;100.00;97255.25;5013764;28;20104;-72
2022/06/28 05:20:57;;;;;;;28.58;13.35;;;;;;;11.42;100.00;97245.69;5034422;28;20037;-73
2022/06/28 05:23:24;;;;;;;22.58;12.60;;;;;;;11.47;100.00;97245.00;5019669;28;20028;-73
2022/06/28 05:26:08;;;;;;;24.58;13.00;;;;;;;11.55;100.00;97241.13;5031113;28;20094;-73
2022/06/28 05:28:34;;;;;;;27.75;13.82;;;;;;;11.65;100.00;97230.63;5035980;28;20112;-73
2022/06/28 05:31:00;;;;;;;26.05;13.05;;;;;;;11.77;100.00;97234.09;5019497;28;20044;-73
2022/06/28 05:33:26;;;;;;;24.58;13.23;;;;;;;11.92;100.00;97231.78;5046917;28;20064;-73
2022/06/28 05:35:51;;;;;;;24.63;13.55;;;;;;;11.94;100.00;97224.28;5054207;28;20033;-73
2022/06/28 05:38:17;;;;;;;24.75;13.27;;;;;;;11.99;100.00;97227.09;5020513;28;20464;-73
2022/06/28 05:40:44;;;;;;;28.30;14.50;;;;;;;12.16;100.00;97234.38;4998295;28;20029;-73
2022/06/28 05:43:10;;;;;;;29.55;14.50;;;;;;;12.23;100.00;97229.69;5032201;28;20052;-72
2022/06/28 05:45:36;;;;;;;28.85;14.55;;;;;;;12.37;100.00;97224.81;5032740;28;20060;-73
2022/06/28 05:48:01;;;;;;;26.58;13.50;;;;;;;12.46;100.00;97224.19;5052295;28;20029;-72
2022/06/28 05:50:28;;;;;;;26.75;14.82;;;;;;;12.60;100.00;97223.88;5049628;28;20124;-73
2022/06/28 05:52:54;;;;;;;28.98;13.88;;;;;;;12.66;100.00;97215.66;5032955;28;20037;-72
2022/06/28 05:55:20;;;;;;;27.02;13.73;;;;;;;12.80;100.00;97224.22;5030797;28;20308;-71
2022/06/28 05:57:46;;;;;;;25.10;13.38;;;;;;;12.87;100.00;97222.19;5052338;28;20025;-71
2022/06/28 06:00:13;;;;;;;27.83;13.75;;;;;;;13.00;100.00;97221.06;5035673;28;20083;-71
2022/06/28 06:02:41;;;;;;;27.10;12.68;;;;;;;13.12;100.00;97221.75;5032757;28;20038;-71
2022/06/28 06:05:08;;;;;;;27.88;12.88;;;;;;;13.24;100.00;97219.03;5031849;28;20033;-71
2022/06/28 06:07:34;;;;;;;24.88;12.82;;;;;;;13.34;100.00;97217.28;5020019;28;20033;-72
2022/06/28 06:10:01;;;;;;;21.50;11.65;;;;;;;13.47;100.00;97221.50;5053713;28;20045;-71
2022/06/28 06:12:28;;;;;;;20.02;10.80;;;;;;;13.56;100.00;97227.25;5036316;28;20549;-71
2022/06/28 06:14:54;;;;;;;20.13;11.38;;;;;;;13.64;100.00;97230.34;5035172;28;20123;-73
2022/06/28 06:17:19;;;;;;;19.83;10.35;;;;;;;13.72;100.00;97225.59;5021031;28;20120;-71
2022/06/28 06:19:45;;;;;;;20.02;9.75;;;;;;;13.74;100.00;97224.25;5023808;28;20083;-71
2022/06/28 06:22:12;;;;;;;21.98;10.70;;;;;;;13.83;100.00;97228.13;5037032;28;20652;-72
2022/06/28 06:24:40;;;;;;;17.70;9.10;;;;;;;13.93;100.00;97224.78;5038215;28;20491;-71
2022/06/28 06:27:13;;;;;;;11.35;5.05;;;;;;;13.92;100.00;97209.69;5033597;28;20458;-71
2022/06/28 06:29:39;;;;;;;10.80;5.47;;;;;;;13.97;100.00;97217.00;5033946;28;20060;-71
2022/06/28 06:32:08;;;;;;;10.70;4.97;;;;;;;14.03;100.00;97213.31;5052144;28;20420;-72
2022/06/28 06:34:33;;;;;;;9.55;5.10;;;;;;;14.13;100.00;97211.53;5038307;28;20037;-72
2022/06/28 06:37:04;;;;;;;13.23;5.40;;;;;;;14.21;100.00;97211.09;5036345;28;20543;-72
2022/06/28 06:39:29;;;;;;;13.27;6.95;;;;;;;14.27;100.00;97221.91;5039518;28;20488;-71
2022/06/28 06:41:55;;;;;;;7.07;4.15;;;;;;;14.32;100.00;97209.34;5054297;28;20037;-71
2022/06/28 06:44:21;;;;;;;10.43;4.47;;;;;;;14.43;100.00;97210.22;5050033;28;20067;-71
2022/06/28 06:46:49;;;;;;;8.57;4.57;;;;;;;14.51;100.00;97217.88;5051557;28;20063;-72
2022/06/28 06:49:17;;;;;;;10.15;4.22;;;;;;;14.58;100.00;97217.69;5050768;28;20055;-71
2022/06/28 06:51:48;;;;;;;8.40;3.85;;;;;;;14.56;100.00;97214.44;5036475;28;20037;-73
2022/06/28 06:54:15;;;;;;;6.05;3.40;;;;;;;14.61;100.00;97212.59;5039405;28;20493;-72
2022/06/28 06:56:41;;;;;;;8.95;3.85;;;;;;;14.65;100.00;97215.59;5054897;28;20033;-71
2022/06/28 06:59:11;;;;;;;6.63;3.45;;;;;;;14.67;100.00;97206.19;5038774;28;20095;-71
2022/06/28 07:01:37;;;;;;;10.13;3.78;;;;;;;14.77;100.00;97205.44;5035209;28;20125;-73
2022/06/28 07:04:04;;;;;;;13.45;2.65;;;;;;;14.89;100.00;97208.78;5036576;28;20116;-71
2022/06/28 07:06:31;;;;;;;5.35;3.15;;;;;;;14.93;100.00;97209.06;5038585;28;20032;-72
2022/06/28 07:08:57;;;;;;;6.97;2.42;;;;;;;14.88;100.00;97206.34;5039471;28;20503;-73
2022/06/28 07:11:22;;;;;;;6.75;2.20;;;;;;;14.98;100.00;97212.63;5037456;28;20111;-73
2022/06/28 07:13:50;;;;;;;4.05;2.30;;;;;;;15.09;100.00;97207.31;5037803;28;20605;-71
2022/06/28 07:16:17;;;;;;;6.60;2.15;;;;;;;15.12;100.00;97214.88;5054574;28;20071;-73
2022/06/28 07:18:43;;;;;;;7.45;2.50;;;;;;;15.15;100.00;97211.66;5036338;28;20626;-71
2022/06/28 07:21:09;;;;;;;6.57;2.47;;;;;;;15.24;100.00;97208.22;5050492;28;20487;-73
2022/06/28 07:23:35;;;;;;;7.65;2.00;;;;;;;15.35;100.00;97202.91;5020880;28;20040;-72
2022/06/28 07:26:00;;;;;;;6.90;2.30;;;;;;;15.40;100.00;97197.53;5037281;28;20311;-71
2022/06/28 07:28:26;;;;;;;4.88;1.83;;;;;;;15.32;100.00;97205.03;5018013;28;20570;-71
2022/06/28 07:30:52;;;;;;;6.40;2.35;;;;;;;15.31;100.00;97200.72;5035106;28;20028;-73
2022/06/28 07:33:17;;;;;;;3.83;1.90;;;;;;;15.38;100.00;97199.69;5041269;28;20385;-71
2022/06/28 07:35:44;;;;;;;4.80;1.90;;;;;;;15.44;100.00;97204.03;5056085;28;20057;-73
2022/06/28 07:38:10;;;;;;;4.80;1.92;;;;;;;15.52;100.00;97187.34;5051615;28;20106;-72
2022/06/28 07:40:54;;;;;;;6.63;1.85;;;;;;;15.61;100.00;97196.59;5036004;28;20704;-71
2022/06/28 07:43:40;;;;;;;5.47;1.90;;;;;;;15.58;100.00;97200.59;5016972;28;20053;-71
2022/06/28 07:46:10;;;;;;;8.68;2.30;;;;;;;15.60;100.00;97203.84;5034906;28;20037;-72
2022/06/28 07:48:36;;;;;;;5.07;1.80;;;;;;;15.66;100.00;97180.44;5053886;28;20040;-72
2022/06/28 07:53:51;;;;;;;6.32;2.30;;;;;;;15.59;100.00;97182.53;5039320;28;20040;-72
2022/06/28 07:56:25;;;;;;;9.05;4.90;;;;;;;15.66;100.00;97176.94;5037390;28;20033;-72
2022/06/28 07:58:53;;;;;;;5.32;2.15;;;;;;;15.70;100.00;97175.31;5023025;28;20043;-72
2022/06/28 08:01:23;;;;;;;10.80;3.67;;;;;;;15.72;100.00;97168.59;5023059;28;20045;-72
2022/06/28 08:03:50;;;;;;;7.25;2.53;;;;;;;15.79;100.00;97174.53;5052868;28;20029;-72
2022/06/28 08:06:18;;;;;;;5.47;2.10;;;;;;;15.92;100.00;97167.03;5036231;28;20431;-72
2022/06/28 08:08:51;;;;;;;9.82;2.80;;;;;;;16.10;100.00;97164.66;5007116;28;20043;-72
2022/06/28 08:11:17;;;;;;;6.15;2.10;;;;;;;16.18;100.00;97174.13;5021764;28;20034;-72
2022/06/28 08:13:48;;;;;;;8.13;2.10;;;;;;;16.13;100.00;97157.94;5036031;28;20028;-72
2022/06/28 08:16:15;;;;;;;6.97;2.35;;;;;;;16.15;100.00;97171.97;5039285;28;20041;-72
2022/06/28 08:18:42;;;;;;;4.65;1.90;;;;;;;16.17;100.00;97176.00;5038858;28;20627;-72
2022/06/28 08:21:08;;;;;;;4.22;1.90;;;;;;;16.26;100.00;97181.69;5037477;28;20032;-72
2022/06/28 08:23:34;;;;;;;4.30;1.60;;;;;;;16.36;100.00;97178.22;5036378;28;20029;-72
2022/06/28 08:26:00;;;;;;;4.22;1.83;;;;;;;16.44;100.00;97170.41;5022802;28;20033;-73
2022/06/28 08:28:26;;;;;;;5.72;2.40;;;;;;;16.69;100.00;97168.81;5007620;28;20032;-72
2022/06/28 08:30:51;;;;;;;9.45;1.98;;;;;;;16.76;100.00;97172.06;5035017;28;20689;-72
2022/06/28 08:33:17;;;;;;;7.57;2.15;;;;;;;16.93;100.00;97161.78;5038143;28;20319;-72
2022/06/28 08:35:43;;;;;;;3.22;1.45;;;;;;;17.23;100.00;97168.22;5036945;28;20040;-72
2022/06/28 08:38:08;;;;;;;4.60;1.73;;;;;;;17.25;100.00;97168.75;5024341;28;20373;-72
2022/06/28 08:40:35;;;;;;;3.78;1.67;;;;;;;17.03;100.00;97168.25;5004798;28;20295;-73
2022/06/28 08:43:01;;;;;;;3.00;1.60;;;;;;;16.91;100.00;97158.53;5022335;28;20335;-72
2022/06/28 08:45:28;;;;;;;6.88;1.50;;;;;;;17.14;100.00;97170.69;5056472;28;20068;-72
2022/06/28 08:47:55;;;;;;;7.78;1.70;;;;;;;17.34;100.00;97160.91;5002956;28;20391;-72
2022/06/28 08:50:39;;;;;;;6.30;1.80;;;;;;;17.54;100.00;97160.84;5021575;28;20665;-72
2022/06/28 08:53:07;;;;;;;3.85;1.50;;;;;;;17.76;100.00;97155.94;5055127;28;20438;-73
2022/06/28 08:55:34;;;;;;;6.70;1.60;;;;;;;17.63;100.00;97158.38;5021020;28;20033;-72
2022/06/28 08:58:01;;;;;;;8.73;2.17;;;;;;;17.77;100.00;97156.72;5041352;28;20302;-72
2022/06/28 09:00:27;;;;;;;6.82;2.10;;;;;;;17.86;100.00;97157.75;5021350;28;20248;-73
2022/06/28 09:02:54;;;;;;;6.80;1.67;;;;;;;18.19;100.00;97152.72;5022975;28;20037;-73
2022/06/28 09:05:24;;;;;;;8.55;2.75;;;;;;;18.77;100.00;97166.44;5039972;28;20476;-73
2022/06/28 09:07:51;;;;;;;9.70;2.33;;;;;;;18.77;100.00;97169.94;5058056;28;20037;-73
2022/06/28 09:10:20;;;;;;;9.23;3.63;;;;;;;18.69;100.00;97177.88;5051709;28;20067;-73
2022/06/28 09:12:55;;;;;;;6.97;3.63;;;;;;;18.40;100.00;97162.34;5021663;28;20075;-73
2022/06/28 09:15:25;;;;;;;10.60;4.07;;;;;;;18.17;100.00;97153.00;5033136;28;20269;-73
2022/06/28 09:17:55;;;;;;;9.90;4.10;;;;;;;17.88;100.00;97161.00;5057686;28;20099;-73
2022/06/28 09:20:35;;;;;;;6.90;3.22;;;;;;;17.92;100.00;97158.56;4997121;28;20053;-73
2022/06/28 09:23:01;;;;;;;9.03;2.77;;;;;;;17.87;100.00;97159.38;5043700;28;20273;-73
2022/06/28 09:25:31;;;;;;;6.30;2.70;;;;;;;17.74;100.00;97147.28;5037889;28;20527;-73
2022/06/28 09:27:59;;;;;;;8.02;2.95;;;;;;;17.46;100.00;97142.47;5009169;28;20090;-73
2022/06/28 09:30:27;;;;;;;7.38;3.60;;;;;;;17.86;100.00;97152.34;5021275;28;20071;-73
2022/06/28 09:32:53;;;;;;;4.72;2.33;;;;;;;18.08;100.00;97138.44;5039952;28;20040;-73
2022/06/28 09:35:19;;;;;;;6.45;2.33;;;;;;;18.10;100.00;97142.47;5021091;28;20037;-73
2022/06/28 09:37:53;;;;;;;4.15;2.25;;;;;;;18.44;100.00;97141.69;5024240;28;20480;-73
2022/06/28 09:40:22;;;;;;;5.18;2.00;;;;;;;18.87;100.00;97144.66;5037771;28;20048;-73
2022/06/28 09:43:13;;;;;;;9.27;2.10;;;;;;;18.81;100.00;97134.94;5004739;28;20415;-73
2022/06/28 09:45:45;;;;;;;9.20;3.08;;;;;;;18.51;100.00;97131.34;5025436;28;20079;-73
2022/06/28 09:48:16;;;;;;;8.15;2.30;;;;;;;18.62;100.00;97138.31;5039845;28;20068;-73
2022/06/28 09:50:42;;;;;;;4.32;2.10;;;;;;;18.43;100.00;97121.13;5042016;28;20044;-73
2022/06/28 09:53:08;;;;;;;5.60;1.98;;;;;;;18.62;100.00;97113.94;5043590;28;20037;-73
2022/06/28 09:55:33;;;;;;;8.07;2.15;;;;;;;18.51;100.00;97112.38;5002884;28;20029;-73
2022/06/28 09:58:01;;;;;;;5.35;2.28;;;;;;;18.49;100.00;97114.56;5026816;28;20168;-73
2022/06/28 10:00:28;;;;;;;7.80;2.47;;;;;;;18.73;100.00;97113.88;5019809;28;20476;-73
2022/06/28 10:02:55;;;;;;;3.45;1.90;;;;;;;19.39;100.00;97108.59;5026068;28;20033;-73
2022/06/28 10:05:21;;;;;;;4.47;1.80;;;;;;;18.91;100.00;97113.97;5039682;28;20029;-73
2022/06/28 10:07:47;;;;;;;4.03;1.92;;;;;;;19.38;100.00;97117.84;5058100;28;20375;-73
2022/06/28 10:10:13;;;;;;;4.18;1.90;;;;;;;19.58;100.00;97113.28;5026345;28;20032;-73
2022/06/28 10:15:36;;;;;;;10.82;2.05;;;;;;;20.08;100.00;97109.09;5055630;28;21291;-73
2022/06/28 10:18:16;;;;;;;4.25;1.80;;;;;;;19.85;100.00;97105.34;5062967;28;20083;-73
2022/06/28 10:20:46;;;;;;;8.98;2.33;;;;;;;19.69;100.00;97101.22;5015540;28;20056;-73
2022/06/28 10:23:24;;;;;;;4.88;1.95;;;;;;;19.79;100.00;97106.50;5012317;28;20037;-73
2022/06/28 10:26:18;;;;;;;5.72;2.22;;;;;;;20.03;100.00;97103.72;5049387;28;20044;-73
2022/06/28 10:29:04;;;;;;;5.00;2.20;;;;;;;19.73;100.00;97100.31;5017972;28;20647;-73
2022/06/28 10:31:30;;;;;;;5.03;1.80;;;;;;;20.13;100.00;97094.63;5026070;28;20483;-73
2022/06/28 10:34:02;;;;;;;4.57;1.60;;;;;;;20.36;99.10;97093.72;5004946;28;20112;-73
2022/06/28 10:36:41;;;;;;;6.20;1.65;;;;;;;20.57;100.00;97084.16;5005629;28;20033;-73
2022/06/28 10:39:07;;;;;;;5.20;1.70;;;;;;;21.12;99.39;97087.00;5021435;28;20033;-73
2022/06/28 10:41:51;;;;;;;6.68;1.67;;;;;;;21.58;99.68;97082.59;5039535;28;20056;-73
2022/06/28 10:44:18;;;;;;;6.18;1.80;;;;;;;21.57;86.13;97079.06;4999858;28;20132;-74
2022/06/28 10:46:52;;;;;;;3.83;1.92;;;;;;;21.70;100.00;97085.59;5008957;28;20349;-74
2022/06/28 10:49:18;;;;;;;5.97;1.85;;;;;;;22.50;94.59;97087.63;5008260;28;20048;-74
2022/06/28 10:52:10;;;;;;;5.70;1.70;;;;;;;23.07;81.30;97081.56;5006388;28;20351;-74
2022/06/28 10:54:37;;;;;;;3.70;1.70;;;;;;;23.24;82.08;97080.84;5026089;28;20102;-74
2022/06/28 10:57:27;;;;;;;5.78;1.67;;;;;;;22.64;81.91;97087.53;5008637;28;20032;-74
2022/06/28 11:00:00;;;;;;;7.38;1.80;;;;;;;23.00;84.69;97081.22;5020634;28;20052;-74
2022/06/28 11:03:06;;;;;;;3.35;1.45;;;;;;;23.42;84.52;97071.59;5018450;28;20438;-74
2022/06/28 11:05:55;;;;;;;6.03;1.70;;;;;;;24.02;80.80;97068.22;5022191;28;20446;-74
2022/06/28 11:08:42;;;;;;;5.28;1.70;;;;;;;24.02;84.71;97068.22;5010321;28;20488;-74
2022/06/28 11:11:08;;;;;;;3.80;1.85;;;;;;;22.64;92.61;97073.09;5037523;28;20448;-74
2022/06/28 11:13:33;;;;;;;3.63;1.70;;;;;;;22.28;87.18;97068.53;5010935;28;20144;-74
2022/06/28 11:15:59;;;;;;;5.75;1.90;;;;;;;21.48;86.35;97078.19;5039044;28;20372;-74
2022/06/28 11:18:25;;;;;;;6.75;2.10;;;;;;;21.74;87.15;97073.00;5038568;28;20029;-74
2022/06/28 11:20:51;;;;;;;3.65;1.65;;;;;;;22.29;87.61;97067.41;5016107;28;20041;-74
2022/06/28 11:23:24;;;;;;;3.75;1.65;;;;;;;24.09;78.39;97057.59;5008603;28;20496;-74
2022/06/28 11:28:52;;;;;;;5.57;2.10;;;;;;;26.34;64.71;97040.31;5036234;28;20506;-74
2022/06/28 11:31:18;;;;;;;6.00;1.85;;;;;;;26.10;49.38;97041.00;5034790;28;20476;-74
2022/06/28 11:33:45;;;;;;;3.90;1.45;;;;;;;25.17;54.97;97047.50;5042475;28;20032;-74
2022/06/28 11:36:31;;;;;;;6.53;1.65;;;;;;;24.36;64.53;97040.13;5039728;28;20322;-74
2022/06/28 11:39:19;;;;;;;5.57;1.77;;;;;;;24.23;65.97;97042.97;5040863;28;20040;-74
2022/06/28 11:41:53;;;;;;;4.32;1.98;;;;;;;25.99;63.95;97022.53;5053213;28;20118;-74
2022/06/28 11:44:20;;;;;;;4.85;1.70;;;;;;;29.05;41.87;97020.53;5057397;28;20037;-74